sensor_id;sensor_type;location;lat;lon;timestamp;temperature;humidity
12841;DHT22;6487;48.626;12.486;2022-11-02T00:01:39;10.50;99.90
12841;DHT22;6487;48.626;12.486;2022-11-02T00:04:08;10.40;99.90
12841;DHT22;6487;48.626;12.486;2022-11-02T00:06:37;10.40;99.90
12841;DHT22;6487;48.626;12.486;2022-11-02T00:09:07;10.50;99.90
12841;DHT22;6487;48.626;12.486;2022-11-02T00:11:36;10.50;99.90
12841;DHT22;6487;48.626;12.486;2022-11-02T00:14:05;10.50;99.90
12841;DHT22;6487;48.626;12.486;2022-11-02T00:16:35;10.50;99.90
12841;DHT22;6487;48.626;12.486;2022-11-02T00:19:04;10.40;99.90
12841;DHT22;6487;48.626;12.486;2022-11-02T00:21:34;10.40;99.90
12841;DHT22;6487;48.626;12.486;2022-11-02T00:24:03;10.30;99.90
12841;DHT22;6487;48.626;12.486;2022-11-02T00:26:33;10.30;99.90
12841;DHT22;6487;48.626;12.486;2022-11-02T00:29:04;10.30;99.90
12841;DHT22;6487;48.626;12.486;2022-11-02T00:31:32;10.40;99.90
12841;DHT22;6487;48.626;12.486;2022-11-02T00:34:01;10.30;99.90
12841;DHT22;6487;48.626;12.486;2022-11-02T00:36:29;10.30;99.90
12841;DHT22;6487;48.626;12.486;2022-11-02T00:38:57;10.20;99.90
12841;DHT22;6487;48.626;12.486;2022-11-02T00:41:26;10.20;99.90
12841;DHT22;6487;48.626;12.486;2022-11-02T00:43:55;10.20;99.90
12841;DHT22;6487;48.626;12.486;2022-11-02T00:46:24;10.20;99.90
12841;DHT22;6487;48.626;12.486;2022-11-02T00:48:52;10.20;99.90
12841;DHT22;6487;48.626;12.486;2022-11-02T00:51:20;10.20;99.90
12841;DHT22;6487;48.626;12.486;2022-11-02T00:53:48;10.10;99.90
12841;DHT22;6487;48.626;12.486;2022-11-02T00:56:17;10.20;99.90
12841;DHT22;6487;48.626;12.486;2022-11-02T00:58:45;10.20;99.90
12841;DHT22;6487;48.626;12.486;2022-11-02T01:01:15;10.10;99.90
12841;DHT22;6487;48.626;12.486;2022-11-02T01:03:43;10.00;99.90
12841;DHT22;6487;48.626;12.486;2022-11-02T01:06:13;9.90;99.90
12841;DHT22;6487;48.626;12.486;2022-11-02T01:08:42;9.80;99.90
12841;DHT22;6487;48.626;12.486;2022-11-02T01:11:12;9.80;99.90
12841;DHT22;6487;48.626;12.486;2022-11-02T01:13:41;9.90;99.90
12841;DHT22;6487;48.626;12.486;2022-11-02T01:16:10;9.90;99.90
12841;DHT22;6487;48.626;12.486;2022-11-02T01:18:41;9.80;99.90
12841;DHT22;6487;48.626;12.486;2022-11-02T01:21:10;9.90;99.90
12841;DHT22;6487;48.626;12.486;2022-11-02T01:23:38;9.80;99.90
12841;DHT22;6487;48.626;12.486;2022-11-02T01:26:08;9.80;99.90
12841;DHT22;6487;48.626;12.486;2022-11-02T01:28:38;9.80;99.90
12841;DHT22;6487;48.626;12.486;2022-11-02T01:31:07;9.70;99.90
12841;DHT22;6487;48.626;12.486;2022-11-02T01:33:37;9.70;99.90
12841;DHT22;6487;48.626;12.486;2022-11-02T01:36:12;9.70;99.90
12841;DHT22;6487;48.626;12.486;2022-11-02T01:38:42;9.50;99.90
12841;DHT22;6487;48.626;12.486;2022-11-02T01:41:11;9.50;99.90
12841;DHT22;6487;48.626;12.486;2022-11-02T01:43:41;9.50;99.90
12841;DHT22;6487;48.626;12.486;2022-11-02T01:46:17;9.50;99.90
12841;DHT22;6487;48.626;12.486;2022-11-02T01:48:51;9.60;99.90
12841;DHT22;6487;48.626;12.486;2022-11-02T01:51:25;9.60;99.90
12841;DHT22;6487;48.626;12.486;2022-11-02T01:53:59;9.60;99.90
12841;DHT22;6487;48.626;12.486;2022-11-02T01:56:31;9.50;99.90
12841;DHT22;6487;48.626;12.486;2022-11-02T01:59:02;9.50;99.90
12841;DHT22;6487;48.626;12.486;2022-11-02T02:01:31;9.50;99.90
12841;DHT22;6487;48.626;12.486;2022-11-02T02:04:01;9.40;99.90
12841;DHT22;6487;48.626;12.486;2022-11-02T02:06:30;9.40;99.90
12841;DHT22;6487;48.626;12.486;2022-11-02T02:09:02;9.40;99.90
12841;DHT22;6487;48.626;12.486;2022-11-02T02:11:33;9.40;99.90
12841;DHT22;6487;48.626;12.486;2022-11-02T02:14:05;9.40;99.90
12841;DHT22;6487;48.626;12.486;2022-11-02T02:16:48;9.30;99.90
12841;DHT22;6487;48.626;12.486;2022-11-02T02:19:40;9.30;99.90
12841;DHT22;6487;48.626;12.486;2022-11-02T02:26:06;9.30;99.90
12841;DHT22;6487;48.626;12.486;2022-11-02T02:28:51;9.30;99.90
12841;DHT22;6487;48.626;12.486;2022-11-02T02:31:25;9.20;99.90
12841;DHT22;6487;48.626;12.486;2022-11-02T02:34:05;9.20;99.90
12841;DHT22;6487;48.626;12.486;2022-11-02T02:36:41;9.20;99.90
12841;DHT22;6487;48.626;12.486;2022-11-02T02:39:20;9.20;99.90
12841;DHT22;6487;48.626;12.486;2022-11-02T02:41:55;9.20;99.90
12841;DHT22;6487;48.626;12.486;2022-11-02T02:44:30;9.30;99.90
12841;DHT22;6487;48.626;12.486;2022-11-02T02:47:03;9.30;99.90
12841;DHT22;6487;48.626;12.486;2022-11-02T02:49:37;9.20;99.90
12841;DHT22;6487;48.626;12.486;2022-11-02T02:52:17;9.20;99.90
12841;DHT22;6487;48.626;12.486;2022-11-02T02:54:48;9.20;99.90
12841;DHT22;6487;48.626;12.486;2022-11-02T02:57:20;9.20;99.90
12841;DHT22;6487;48.626;12.486;2022-11-02T02:59:51;9.20;99.90
12841;DHT22;6487;48.626;12.486;2022-11-02T03:02:23;9.20;99.90
12841;DHT22;6487;48.626;12.486;2022-11-02T03:04:52;9.20;99.90
12841;DHT22;6487;48.626;12.486;2022-11-02T03:07:24;9.20;99.90
12841;DHT22;6487;48.626;12.486;2022-11-02T03:10:05;9.20;99.90
12841;DHT22;6487;48.626;12.486;2022-11-02T03:12:45;9.20;99.90
12841;DHT22;6487;48.626;12.486;2022-11-02T03:15:21;9.20;99.90
12841;DHT22;6487;48.626;12.486;2022-11-02T03:18:00;9.20;99.90
12841;DHT22;6487;48.626;12.486;2022-11-02T03:20:38;9.10;99.90
12841;DHT22;6487;48.626;12.486;2022-11-02T03:23:14;9.10;99.90
12841;DHT22;6487;48.626;12.486;2022-11-02T03:25:50;9.10;99.90
12841;DHT22;6487;48.626;12.486;2022-11-02T03:28:25;9.10;99.90
12841;DHT22;6487;48.626;12.486;2022-11-02T03:31:02;9.10;99.90
12841;DHT22;6487;48.626;12.486;2022-11-02T03:33:37;9.20;99.90
12841;DHT22;6487;48.626;12.486;2022-11-02T03:36:12;9.10;99.90
12841;DHT22;6487;48.626;12.486;2022-11-02T03:38:44;9.10;99.90
12841;DHT22;6487;48.626;12.486;2022-11-02T03:41:15;9.10;99.90
12841;DHT22;6487;48.626;12.486;2022-11-02T03:43:45;9.10;99.90
12841;DHT22;6487;48.626;12.486;2022-11-02T03:46:18;9.10;99.90
12841;DHT22;6487;48.626;12.486;2022-11-02T03:48:48;9.10;99.90
12841;DHT22;6487;48.626;12.486;2022-11-02T03:51:19;9.10;99.90
12841;DHT22;6487;48.626;12.486;2022-11-02T03:53:52;9.00;99.90
12841;DHT22;6487;48.626;12.486;2022-11-02T03:56:27;9.00;99.90
12841;DHT22;6487;48.626;12.486;2022-11-02T03:58:58;9.00;99.90
12841;DHT22;6487;48.626;12.486;2022-11-02T04:01:28;9.00;99.90
12841;DHT22;6487;48.626;12.486;2022-11-02T04:03:57;9.00;99.90
12841;DHT22;6487;48.626;12.486;2022-11-02T04:06:26;9.00;99.90
12841;DHT22;6487;48.626;12.486;2022-11-02T04:08:54;9.00;99.90
12841;DHT22;6487;48.626;12.486;2022-11-02T04:11:22;9.00;99.90
12841;DHT22;6487;48.626;12.486;2022-11-02T04:14:08;8.90;99.90
12841;DHT22;6487;48.626;12.486;2022-11-02T04:16:55;9.00;99.90
12841;DHT22;6487;48.626;12.486;2022-11-02T04:19:38;8.80;99.90
12841;DHT22;6487;48.626;12.486;2022-11-02T04:22:12;8.80;99.90
12841;DHT22;6487;48.626;12.486;2022-11-02T04:24:54;8.90;99.90
12841;DHT22;6487;48.626;12.486;2022-11-02T04:27:40;8.90;99.90
12841;DHT22;6487;48.626;12.486;2022-11-02T04:30:09;8.90;99.90
12841;DHT22;6487;48.626;12.486;2022-11-02T04:32:40;8.80;99.90
12841;DHT22;6487;48.626;12.486;2022-11-02T04:35:28;8.90;99.90
12841;DHT22;6487;48.626;12.486;2022-11-02T04:37:57;8.80;99.90
12841;DHT22;6487;48.626;12.486;2022-11-02T04:40:43;8.80;99.90
12841;DHT22;6487;48.626;12.486;2022-11-02T04:43:12;8.80;99.90
12841;DHT22;6487;48.626;12.486;2022-11-02T04:45:40;8.80;99.90
12841;DHT22;6487;48.626;12.486;2022-11-02T04:48:10;8.70;99.90
12841;DHT22;6487;48.626;12.486;2022-11-02T04:50:38;8.70;99.90
12841;DHT22;6487;48.626;12.486;2022-11-02T04:53:06;8.70;99.90
12841;DHT22;6487;48.626;12.486;2022-11-02T04:55:34;8.70;99.90
12841;DHT22;6487;48.626;12.486;2022-11-02T04:58:03;8.70;99.90
12841;DHT22;6487;48.626;12.486;2022-11-02T05:00:31;8.60;99.90
12841;DHT22;6487;48.626;12.486;2022-11-02T05:03:00;8.60;99.90
12841;DHT22;6487;48.626;12.486;2022-11-02T05:05:32;8.60;99.90
12841;DHT22;6487;48.626;12.486;2022-11-02T05:08:01;8.60;99.90
12841;DHT22;6487;48.626;12.486;2022-11-02T05:10:29;8.60;99.90
12841;DHT22;6487;48.626;12.486;2022-11-02T05:12:58;8.50;99.90
12841;DHT22;6487;48.626;12.486;2022-11-02T05:15:27;8.50;99.90
12841;DHT22;6487;48.626;12.486;2022-11-02T05:17:55;8.50;99.90
12841;DHT22;6487;48.626;12.486;2022-11-02T05:20:24;8.50;99.90
12841;DHT22;6487;48.626;12.486;2022-11-02T05:22:53;8.40;99.90
12841;DHT22;6487;48.626;12.486;2022-11-02T05:25:22;8.30;99.90
12841;DHT22;6487;48.626;12.486;2022-11-02T05:27:50;8.30;99.90
12841;DHT22;6487;48.626;12.486;2022-11-02T05:30:18;8.30;99.90
12841;DHT22;6487;48.626;12.486;2022-11-02T05:32:46;8.40;99.90
12841;DHT22;6487;48.626;12.486;2022-11-02T05:35:15;8.30;99.90
12841;DHT22;6487;48.626;12.486;2022-11-02T05:37:43;8.30;99.90
12841;DHT22;6487;48.626;12.486;2022-11-02T05:40:13;8.30;99.90
12841;DHT22;6487;48.626;12.486;2022-11-02T05:42:41;8.20;99.90
12841;DHT22;6487;48.626;12.486;2022-11-02T05:45:10;8.20;99.90
12841;DHT22;6487;48.626;12.486;2022-11-02T05:47:38;8.20;99.90
12841;DHT22;6487;48.626;12.486;2022-11-02T05:50:06;8.20;99.90
12841;DHT22;6487;48.626;12.486;2022-11-02T05:52:36;8.20;99.90
12841;DHT22;6487;48.626;12.486;2022-11-02T05:55:05;8.20;99.90
12841;DHT22;6487;48.626;12.486;2022-11-02T05:57:36;8.20;99.90
12841;DHT22;6487;48.626;12.486;2022-11-02T06:00:05;8.10;99.90
12841;DHT22;6487;48.626;12.486;2022-11-02T06:02:34;8.10;99.90
12841;DHT22;6487;48.626;12.486;2022-11-02T06:05:03;8.00;99.90
12841;DHT22;6487;48.626;12.486;2022-11-02T06:07:32;8.00;99.90
12841;DHT22;6487;48.626;12.486;2022-11-02T06:10:00;8.00;99.90
12841;DHT22;6487;48.626;12.486;2022-11-02T06:12:28;8.00;99.90
12841;DHT22;6487;48.626;12.486;2022-11-02T06:14:58;8.00;99.90
12841;DHT22;6487;48.626;12.486;2022-11-02T06:17:26;8.10;99.90
12841;DHT22;6487;48.626;12.486;2022-11-02T06:19:55;8.10;99.90
12841;DHT22;6487;48.626;12.486;2022-11-02T06:22:23;8.10;99.90
12841;DHT22;6487;48.626;12.486;2022-11-02T06:24:51;8.10;99.90
12841;DHT22;6487;48.626;12.486;2022-11-02T06:27:19;8.00;99.90
12841;DHT22;6487;48.626;12.486;2022-11-02T06:29:48;8.10;99.90
12841;DHT22;6487;48.626;12.486;2022-11-02T06:32:17;8.10;99.90
12841;DHT22;6487;48.626;12.486;2022-11-02T06:34:46;8.20;99.90
12841;DHT22;6487;48.626;12.486;2022-11-02T06:37:14;8.20;99.90
12841;DHT22;6487;48.626;12.486;2022-11-02T06:39:43;8.20;99.90
12841;DHT22;6487;48.626;12.486;2022-11-02T06:42:11;8.30;99.90
12841;DHT22;6487;48.626;12.486;2022-11-02T06:44:39;8.30;99.90
12841;DHT22;6487;48.626;12.486;2022-11-02T06:47:08;8.30;99.90
12841;DHT22;6487;48.626;12.486;2022-11-02T06:49:37;8.40;99.90
12841;DHT22;6487;48.626;12.486;2022-11-02T06:52:05;8.40;99.90
12841;DHT22;6487;48.626;12.486;2022-11-02T06:54:34;8.40;99.90
12841;DHT22;6487;48.626;12.486;2022-11-02T06:57:02;8.40;99.90
12841;DHT22;6487;48.626;12.486;2022-11-02T06:59:31;8.50;99.90
12841;DHT22;6487;48.626;12.486;2022-11-02T07:01:59;8.40;99.90
12841;DHT22;6487;48.626;12.486;2022-11-02T07:04:28;8.40;99.90
12841;DHT22;6487;48.626;12.486;2022-11-02T07:06:57;8.50;99.90
12841;DHT22;6487;48.626;12.486;2022-11-02T07:09:26;8.50;99.90
12841;DHT22;6487;48.626;12.486;2022-11-02T07:11:54;8.50;99.90
12841;DHT22;6487;48.626;12.486;2022-11-02T07:14:22;8.60;99.90
12841;DHT22;6487;48.626;12.486;2022-11-02T07:16:51;8.60;99.90
12841;DHT22;6487;48.626;12.486;2022-11-02T07:19:19;8.70;99.90
12841;DHT22;6487;48.626;12.486;2022-11-02T07:21:47;8.80;99.90
12841;DHT22;6487;48.626;12.486;2022-11-02T07:24:17;8.80;99.90
12841;DHT22;6487;48.626;12.486;2022-11-02T07:26:47;8.80;99.90
12841;DHT22;6487;48.626;12.486;2022-11-02T07:29:16;8.90;99.90
12841;DHT22;6487;48.626;12.486;2022-11-02T07:31:45;8.80;99.90
12841;DHT22;6487;48.626;12.486;2022-11-02T07:34:13;8.90;99.90
12841;DHT22;6487;48.626;12.486;2022-11-02T07:36:43;8.90;99.90
12841;DHT22;6487;48.626;12.486;2022-11-02T07:39:11;9.00;99.90
12841;DHT22;6487;48.626;12.486;2022-11-02T07:41:41;9.00;99.90
12841;DHT22;6487;48.626;12.486;2022-11-02T07:44:16;9.20;99.90
12841;DHT22;6487;48.626;12.486;2022-11-02T07:46:44;9.30;99.90
12841;DHT22;6487;48.626;12.486;2022-11-02T07:49:13;9.30;99.90
12841;DHT22;6487;48.626;12.486;2022-11-02T07:51:47;9.40;99.90
12841;DHT22;6487;48.626;12.486;2022-11-02T07:54:15;9.40;99.90
12841;DHT22;6487;48.626;12.486;2022-11-02T07:56:45;9.50;99.90
12841;DHT22;6487;48.626;12.486;2022-11-02T07:59:13;9.40;99.90
12841;DHT22;6487;48.626;12.486;2022-11-02T08:01:41;9.50;99.90
12841;DHT22;6487;48.626;12.486;2022-11-02T08:04:10;9.60;99.90
12841;DHT22;6487;48.626;12.486;2022-11-02T08:06:38;9.60;99.90
12841;DHT22;6487;48.626;12.486;2022-11-02T08:09:06;9.70;99.90
12841;DHT22;6487;48.626;12.486;2022-11-02T08:11:35;9.70;99.90
12841;DHT22;6487;48.626;12.486;2022-11-02T08:14:04;9.80;99.90
12841;DHT22;6487;48.626;12.486;2022-11-02T08:16:33;9.80;99.90
12841;DHT22;6487;48.626;12.486;2022-11-02T08:19:01;9.80;99.90
12841;DHT22;6487;48.626;12.486;2022-11-02T08:21:29;9.80;99.90
12841;DHT22;6487;48.626;12.486;2022-11-02T08:23:58;9.90;99.90
12841;DHT22;6487;48.626;12.486;2022-11-02T08:26:26;10.00;99.90
12841;DHT22;6487;48.626;12.486;2022-11-02T08:28:54;10.10;99.90
12841;DHT22;6487;48.626;12.486;2022-11-02T08:31:24;10.30;99.90
12841;DHT22;6487;48.626;12.486;2022-11-02T08:33:52;10.50;99.90
12841;DHT22;6487;48.626;12.486;2022-11-02T08:36:21;10.70;99.90
12841;DHT22;6487;48.626;12.486;2022-11-02T08:38:49;10.90;99.90
12841;DHT22;6487;48.626;12.486;2022-11-02T08:41:17;11.10;99.90
12841;DHT22;6487;48.626;12.486;2022-11-02T08:43:45;11.20;99.90
12841;DHT22;6487;48.626;12.486;2022-11-02T08:46:14;11.30;99.90
12841;DHT22;6487;48.626;12.486;2022-11-02T08:48:44;11.50;99.90
12841;DHT22;6487;48.626;12.486;2022-11-02T08:51:13;11.60;99.90
12841;DHT22;6487;48.626;12.486;2022-11-02T08:53:41;11.90;99.90
12841;DHT22;6487;48.626;12.486;2022-11-02T08:56:17;12.00;99.90
12841;DHT22;6487;48.626;12.486;2022-11-02T08:58:45;12.10;99.90
12841;DHT22;6487;48.626;12.486;2022-11-02T09:01:14;12.30;99.90
12841;DHT22;6487;48.626;12.486;2022-11-02T09:03:44;12.50;99.90
12841;DHT22;6487;48.626;12.486;2022-11-02T09:06:12;12.70;99.90
12841;DHT22;6487;48.626;12.486;2022-11-02T09:08:40;12.90;99.90
12841;DHT22;6487;48.626;12.486;2022-11-02T09:11:09;13.10;99.90
12841;DHT22;6487;48.626;12.486;2022-11-02T09:13:37;13.20;99.90
12841;DHT22;6487;48.626;12.486;2022-11-02T09:16:06;13.50;99.90
12841;DHT22;6487;48.626;12.486;2022-11-02T09:18:36;13.40;99.90
12841;DHT22;6487;48.626;12.486;2022-11-02T09:21:06;13.50;99.90
12841;DHT22;6487;48.626;12.486;2022-11-02T09:23:34;13.70;99.90
12841;DHT22;6487;48.626;12.486;2022-11-02T09:26:03;14.00;99.90
12841;DHT22;6487;48.626;12.486;2022-11-02T09:28:31;14.30;99.90
12841;DHT22;6487;48.626;12.486;2022-11-02T09:31:00;14.40;99.90
12841;DHT22;6487;48.626;12.486;2022-11-02T09:33:33;14.50;99.90
12841;DHT22;6487;48.626;12.486;2022-11-02T09:36:04;14.80;99.90
12841;DHT22;6487;48.626;12.486;2022-11-02T09:38:34;15.00;99.90
12841;DHT22;6487;48.626;12.486;2022-11-02T09:41:11;15.30;99.90
12841;DHT22;6487;48.626;12.486;2022-11-02T09:43:52;15.20;99.90
12841;DHT22;6487;48.626;12.486;2022-11-02T09:46:26;15.40;99.90
12841;DHT22;6487;48.626;12.486;2022-11-02T09:49:00;15.70;99.90
12841;DHT22;6487;48.626;12.486;2022-11-02T09:51:34;15.90;99.90
12841;DHT22;6487;48.626;12.486;2022-11-02T09:54:13;16.20;99.90
12841;DHT22;6487;48.626;12.486;2022-11-02T09:56:45;16.40;99.90
12841;DHT22;6487;48.626;12.486;2022-11-02T09:59:15;16.30;99.90
12841;DHT22;6487;48.626;12.486;2022-11-02T10:01:59;16.60;99.90
12841;DHT22;6487;48.626;12.486;2022-11-02T10:04:57;16.90;99.90
12841;DHT22;6487;48.626;12.486;2022-11-02T10:07:52;17.10;99.90
12841;DHT22;6487;48.626;12.486;2022-11-02T10:10:38;17.20;99.90
12841;DHT22;6487;48.626;12.486;2022-11-02T10:13:18;17.50;99.90
12841;DHT22;6487;48.626;12.486;2022-11-02T10:15:53;17.50;99.90
12841;DHT22;6487;48.626;12.486;2022-11-02T10:18:25;17.80;99.90
12841;DHT22;6487;48.626;12.486;2022-11-02T10:20:57;18.00;99.90
12841;DHT22;6487;48.626;12.486;2022-11-02T10:23:32;18.00;99.90
12841;DHT22;6487;48.626;12.486;2022-11-02T10:26:02;18.10;99.90
12841;DHT22;6487;48.626;12.486;2022-11-02T10:28:33;18.10;99.90
12841;DHT22;6487;48.626;12.486;2022-11-02T10:31:13;17.90;99.90
12841;DHT22;6487;48.626;12.486;2022-11-02T10:33:47;17.90;99.90
12841;DHT22;6487;48.626;12.486;2022-11-02T10:36:39;17.90;99.90
12841;DHT22;6487;48.626;12.486;2022-11-02T10:39:21;17.80;99.90
12841;DHT22;6487;48.626;12.486;2022-11-02T10:42:07;17.90;99.90
12841;DHT22;6487;48.626;12.486;2022-11-02T10:44:58;17.80;99.90
12841;DHT22;6487;48.626;12.486;2022-11-02T10:47:38;17.80;99.90
12841;DHT22;6487;48.626;12.486;2022-11-02T10:50:29;17.80;99.90
12841;DHT22;6487;48.626;12.486;2022-11-02T10:53:16;17.90;99.90
12841;DHT22;6487;48.626;12.486;2022-11-02T10:56:13;18.00;99.90
12841;DHT22;6487;48.626;12.486;2022-11-02T10:58:48;18.10;99.90
12841;DHT22;6487;48.626;12.486;2022-11-02T11:01:18;18.20;99.90
12841;DHT22;6487;48.626;12.486;2022-11-02T11:03:55;18.00;99.90
12841;DHT22;6487;48.626;12.486;2022-11-02T11:06:27;18.20;99.90
12841;DHT22;6487;48.626;12.486;2022-11-02T11:09:03;18.20;99.90
12841;DHT22;6487;48.626;12.486;2022-11-02T11:11:35;18.30;99.90
12841;DHT22;6487;48.626;12.486;2022-11-02T11:14:06;18.50;99.90
12841;DHT22;6487;48.626;12.486;2022-11-02T11:17:13;18.30;99.90
12841;DHT22;6487;48.626;12.486;2022-11-02T11:20:05;18.30;99.90
12841;DHT22;6487;48.626;12.486;2022-11-02T11:22:36;18.20;99.90
12841;DHT22;6487;48.626;12.486;2022-11-02T11:25:19;18.20;99.90
12841;DHT22;6487;48.626;12.486;2022-11-02T11:27:56;18.10;99.90
12841;DHT22;6487;48.626;12.486;2022-11-02T11:30:26;18.00;99.90
12841;DHT22;6487;48.626;12.486;2022-11-02T11:33:18;17.90;99.90
12841;DHT22;6487;48.626;12.486;2022-11-02T11:35:50;17.90;99.90
12841;DHT22;6487;48.626;12.486;2022-11-02T11:38:19;17.90;99.90
12841;DHT22;6487;48.626;12.486;2022-11-02T11:40:51;17.90;99.90
12841;DHT22;6487;48.626;12.486;2022-11-02T11:43:24;17.90;99.90
12841;DHT22;6487;48.626;12.486;2022-11-02T11:45:55;17.80;99.90
12841;DHT22;6487;48.626;12.486;2022-11-02T11:48:34;17.80;99.90
12841;DHT22;6487;48.626;12.486;2022-11-02T11:51:22;17.70;99.90
12841;DHT22;6487;48.626;12.486;2022-11-02T11:54:15;17.70;99.90
12841;DHT22;6487;48.626;12.486;2022-11-02T11:56:47;17.60;99.90
12841;DHT22;6487;48.626;12.486;2022-11-02T11:59:24;17.50;99.90
12841;DHT22;6487;48.626;12.486;2022-11-02T12:01:58;17.40;99.90
12841;DHT22;6487;48.626;12.486;2022-11-02T12:04:30;17.50;99.90
12841;DHT22;6487;48.626;12.486;2022-11-02T12:07:11;17.50;99.90
12841;DHT22;6487;48.626;12.486;2022-11-02T12:09:57;17.60;99.90
12841;DHT22;6487;48.626;12.486;2022-11-02T12:12:41;17.10;99.70
12841;DHT22;6487;48.626;12.486;2022-11-02T12:15:26;17.30;99.90
12841;DHT22;6487;48.626;12.486;2022-11-02T12:18:13;17.10;99.40
12841;DHT22;6487;48.626;12.486;2022-11-02T12:20:58;17.00;99.10
12841;DHT22;6487;48.626;12.486;2022-11-02T12:23:50;16.70;97.80
12841;DHT22;6487;48.626;12.486;2022-11-02T12:26:35;16.60;98.80
12841;DHT22;6487;48.626;12.486;2022-11-02T12:29:24;16.40;98.60
12841;DHT22;6487;48.626;12.486;2022-11-02T12:32:20;16.50;99.40
12841;DHT22;6487;48.626;12.486;2022-11-02T12:35:12;16.50;98.90
12841;DHT22;6487;48.626;12.486;2022-11-02T12:38:06;16.50;99.80
12841;DHT22;6487;48.626;12.486;2022-11-02T12:40:49;16.50;99.00
12841;DHT22;6487;48.626;12.486;2022-11-02T12:43:35;16.50;99.90
12841;DHT22;6487;48.626;12.486;2022-11-02T12:46:25;16.60;99.30
12841;DHT22;6487;48.626;12.486;2022-11-02T12:49:19;16.70;99.90
12841;DHT22;6487;48.626;12.486;2022-11-02T12:52:09;16.70;99.10
12841;DHT22;6487;48.626;12.486;2022-11-02T12:54:46;16.50;99.00
12841;DHT22;6487;48.626;12.486;2022-11-02T12:57:17;16.50;99.30
12841;DHT22;6487;48.626;12.486;2022-11-02T12:59:50;16.50;99.90
12841;DHT22;6487;48.626;12.486;2022-11-02T13:02:25;16.50;99.90
12841;DHT22;6487;48.626;12.486;2022-11-02T13:04:59;16.40;99.50
12841;DHT22;6487;48.626;12.486;2022-11-02T13:07:32;16.40;99.90
12841;DHT22;6487;48.626;12.486;2022-11-02T13:10:06;16.40;99.90
12841;DHT22;6487;48.626;12.486;2022-11-02T13:12:42;16.00;98.80
12841;DHT22;6487;48.626;12.486;2022-11-02T13:15:14;16.00;99.80
12841;DHT22;6487;48.626;12.486;2022-11-02T13:17:47;16.20;99.60
12841;DHT22;6487;48.626;12.486;2022-11-02T13:20:20;16.20;99.30
12841;DHT22;6487;48.626;12.486;2022-11-02T13:22:55;16.20;99.40
12841;DHT22;6487;48.626;12.486;2022-11-02T13:25:27;16.10;99.00
12841;DHT22;6487;48.626;12.486;2022-11-02T13:28:01;16.10;99.60
12841;DHT22;6487;48.626;12.486;2022-11-02T13:30:34;16.00;99.50
12841;DHT22;6487;48.626;12.486;2022-11-02T13:33:03;16.10;99.70
12841;DHT22;6487;48.626;12.486;2022-11-02T13:35:39;16.10;99.90
12841;DHT22;6487;48.626;12.486;2022-11-02T13:38:20;16.00;99.90
12841;DHT22;6487;48.626;12.486;2022-11-02T13:41:05;16.20;99.90
12841;DHT22;6487;48.626;12.486;2022-11-02T13:44:13;16.20;99.90
12841;DHT22;6487;48.626;12.486;2022-11-02T13:47:06;16.10;99.90
12841;DHT22;6487;48.626;12.486;2022-11-02T13:49:43;16.10;99.90
12841;DHT22;6487;48.626;12.486;2022-11-02T13:52:15;16.10;99.90
12841;DHT22;6487;48.626;12.486;2022-11-02T13:54:47;16.00;99.90
12841;DHT22;6487;48.626;12.486;2022-11-02T13:57:26;16.00;99.90
12841;DHT22;6487;48.626;12.486;2022-11-02T13:59:59;16.10;99.90
12841;DHT22;6487;48.626;12.486;2022-11-02T14:02:34;16.10;99.90
12841;DHT22;6487;48.626;12.486;2022-11-02T14:05:04;16.00;99.90
12841;DHT22;6487;48.626;12.486;2022-11-02T14:07:38;16.10;99.90
12841;DHT22;6487;48.626;12.486;2022-11-02T14:10:13;15.90;99.90
12841;DHT22;6487;48.626;12.486;2022-11-02T14:12:44;15.80;99.90
12841;DHT22;6487;48.626;12.486;2022-11-02T14:15:53;15.60;99.90
12841;DHT22;6487;48.626;12.486;2022-11-02T14:18:29;15.70;99.90
12841;DHT22;6487;48.626;12.486;2022-11-02T14:20:58;15.60;99.90
12841;DHT22;6487;48.626;12.486;2022-11-02T14:27:32;15.70;99.90
12841;DHT22;6487;48.626;12.486;2022-11-02T14:30:01;15.70;99.90
12841;DHT22;6487;48.626;12.486;2022-11-02T14:32:44;15.50;99.90
12841;DHT22;6487;48.626;12.486;2022-11-02T14:35:34;15.50;99.90
12841;DHT22;6487;48.626;12.486;2022-11-02T14:38:28;15.50;99.90
12841;DHT22;6487;48.626;12.486;2022-11-02T14:41:18;15.50;99.90
12841;DHT22;6487;48.626;12.486;2022-11-02T14:44:07;15.30;99.90
12841;DHT22;6487;48.626;12.486;2022-11-02T14:46:58;15.30;99.90
12841;DHT22;6487;48.626;12.486;2022-11-02T14:49:32;15.30;99.90
12841;DHT22;6487;48.626;12.486;2022-11-02T14:52:03;15.20;99.90
12841;DHT22;6487;48.626;12.486;2022-11-02T14:54:38;15.20;99.90
12841;DHT22;6487;48.626;12.486;2022-11-02T14:57:22;15.30;99.90
12841;DHT22;6487;48.626;12.486;2022-11-02T14:59:55;15.30;99.90
12841;DHT22;6487;48.626;12.486;2022-11-02T15:02:28;15.30;99.90
12841;DHT22;6487;48.626;12.486;2022-11-02T15:05:00;15.20;99.90
12841;DHT22;6487;48.626;12.486;2022-11-02T15:07:33;15.20;99.90
12841;DHT22;6487;48.626;12.486;2022-11-02T15:10:05;15.10;99.90
12841;DHT22;6487;48.626;12.486;2022-11-02T15:13:33;15.00;99.90
12841;DHT22;6487;48.626;12.486;2022-11-02T15:16:22;15.00;99.90
12841;DHT22;6487;48.626;12.486;2022-11-02T15:18:51;14.90;99.90
12841;DHT22;6487;48.626;12.486;2022-11-02T15:21:26;14.90;99.90
12841;DHT22;6487;48.626;12.486;2022-11-02T15:24:02;14.70;99.90
12841;DHT22;6487;48.626;12.486;2022-11-02T15:26:44;14.70;99.90
12841;DHT22;6487;48.626;12.486;2022-11-02T15:29:32;14.70;99.90
12841;DHT22;6487;48.626;12.486;2022-11-02T15:32:06;14.50;99.90
12841;DHT22;6487;48.626;12.486;2022-11-02T15:35:01;14.40;99.90
12841;DHT22;6487;48.626;12.486;2022-11-02T15:37:31;14.40;99.90
12841;DHT22;6487;48.626;12.486;2022-11-02T15:40:22;14.40;99.90
12841;DHT22;6487;48.626;12.486;2022-11-02T15:43:02;14.20;99.90
12841;DHT22;6487;48.626;12.486;2022-11-02T15:45:49;14.10;99.90
12841;DHT22;6487;48.626;12.486;2022-11-02T15:48:36;14.10;99.90
12841;DHT22;6487;48.626;12.486;2022-11-02T15:51:15;14.10;99.90
12841;DHT22;6487;48.626;12.486;2022-11-02T15:54:05;14.00;99.90
12841;DHT22;6487;48.626;12.486;2022-11-02T15:56:51;14.00;99.90
12841;DHT22;6487;48.626;12.486;2022-11-02T15:59:54;13.90;99.90
12841;DHT22;6487;48.626;12.486;2022-11-02T16:02:32;13.80;99.90
12841;DHT22;6487;48.626;12.486;2022-11-02T16:05:03;13.60;99.90
12841;DHT22;6487;48.626;12.486;2022-11-02T16:07:34;13.40;99.90
12841;DHT22;6487;48.626;12.486;2022-11-02T16:10:25;13.20;99.90
12841;DHT22;6487;48.626;12.486;2022-11-02T16:13:10;13.20;99.90
12841;DHT22;6487;48.626;12.486;2022-11-02T16:15:43;13.10;99.90
12841;DHT22;6487;48.626;12.486;2022-11-02T16:18:22;13.00;99.90
12841;DHT22;6487;48.626;12.486;2022-11-02T16:20:53;12.90;99.90
12841;DHT22;6487;48.626;12.486;2022-11-02T16:23:26;12.90;99.90
12841;DHT22;6487;48.626;12.486;2022-11-02T16:25:57;12.80;99.90
12841;DHT22;6487;48.626;12.486;2022-11-02T16:28:28;12.50;99.90
12841;DHT22;6487;48.626;12.486;2022-11-02T16:31:00;12.40;99.90